Time;durP1;ratioP1;P1;durP2;ratioP2;P2;SDS_P1;SDS_P2;PMS_P1;PMS_P2;Temp;Humidity;BMP_temperature;BMP_pressure;BME280_temperature;BME280_humidity;BME280_pressure;Samples;Min_cycle;Max_cycle;Signal;HPM_P1;HPM_P2
2022/12/21 00:01:27;;;;;;;97.70;80.60;;;;;;;-1.63;89.27;98045.39;105592;1308;22088;-83
2022/12/21 00:04:05;;;;;;;108.80;87.20;;;;;;;-1.68;89.10;98041.00;106500;1286;23364;31
2022/12/21 00:06:41;;;;;;;100.90;83.00;;;;;;;-1.75;89.24;98029.35;106622;1285;22157;-87
2022/12/21 00:09:12;;;;;;;111.90;86.40;;;;;;;-1.86;89.37;98012.05;106113;1285;22456;-89
2022/12/21 00:11:40;;;;;;;112.80;86.50;;;;;;;-1.74;89.54;98024.43;105852;1297;22266;-87
2022/12/21 00:14:15;;;;;;;100.30;81.60;;;;;;;-1.68;89.46;98030.91;106002;1285;23992;31
2022/12/21 00:16:43;;;;;;;102.50;81.90;;;;;;;-1.64;89.43;98034.34;105635;1291;22824;-88
2022/12/21 00:19:14;;;;;;;82.60;73.70;;;;;;;-1.65;89.27;98038.87;105542;1288;22110;-92
2022/12/21 00:21:42;;;;;;;84.70;76.00;;;;;;;-1.77;88.89;98042.45;105613;1318;22957;-91
2022/12/21 00:24:10;;;;;;;87.90;77.10;;;;;;;-1.96;88.94;98047.23;105748;1321;22188;-87
2022/12/21 00:26:39;;;;;;;97.50;80.70;;;;;;;-2.11;89.14;98038.52;105573;1302;22112;-92
2022/12/21 00:29:07;;;;;;;78.30;68.90;;;;;;;-2.17;89.42;98034.70;105447;1321;22079;-92
2022/12/21 00:31:38;;;;;;;85.40;76.20;;;;;;;-2.27;89.24;98037.23;105543;1324;22193;-90
2022/12/21 00:34:06;;;;;;;84.70;74.80;;;;;;;-2.31;89.23;98032.27;105430;1315;22210;-91
2022/12/21 00:36:36;;;;;;;73.60;66.40;;;;;;;-2.25;89.72;98035.69;105473;1321;22862;-89
2022/12/21 00:39:04;;;;;;;78.20;69.80;;;;;;;-2.25;89.43;98036.67;105500;1324;22216;-92
2022/12/21 00:41:40;;;;;;;74.00;66.50;;;;;;;-2.44;89.14;98038.36;105759;1286;23630;31
2022/12/21 00:44:09;;;;;;;78.20;70.40;;;;;;;-2.55;89.29;98039.02;105716;1321;22925;-91
2022/12/21 00:46:37;;;;;;;80.10;72.30;;;;;;;-2.60;89.91;98033.94;105460;1324;22121;-89
2022/12/21 00:49:06;;;;;;;79.00;70.60;;;;;;;-2.59;89.96;98027.95;105281;1318;22205;-88
2022/12/21 00:51:35;;;;;;;84.40;75.20;;;;;;;-2.58;90.07;98017.98;105507;1320;22277;-89
2022/12/21 00:54:03;;;;;;;87.90;73.30;;;;;;;-2.49;90.22;98017.24;106027;1307;22169;-89
2022/12/21 00:56:31;;;;;;;77.90;70.00;;;;;;;-2.39;90.16;98020.27;105735;1316;22101;-87
2022/12/21 00:58:59;;;;;;;74.50;67.30;;;;;;;-2.36;89.74;98023.41;105879;1315;22037;-92
2022/12/21 01:01:31;;;;;;;81.10;72.70;;;;;;;-2.42;89.94;98026.02;105728;1321;23102;-92
2022/12/21 01:04:00;;;;;;;88.20;76.80;;;;;;;-2.55;90.17;98025.21;105666;1318;21908;-88
2022/12/21 01:06:34;;;;;;;84.50;76.10;;;;;;;-2.60;90.06;98018.19;105702;1318;22218;-86
2022/12/21 01:09:04;;;;;;;80.30;71.60;;;;;;;-2.59;90.41;98015.79;105641;1315;21903;-88
2022/12/21 01:11:40;;;;;;;74.40;66.40;;;;;;;-2.50;91.07;98005.06;106349;1277;22396;31
2022/12/21 01:14:15;;;;;;;77.20;69.30;;;;;;;-2.36;90.70;98000.31;107703;1289;23050;31
2022/12/21 01:16:43;;;;;;;79.10;71.30;;;;;;;-2.34;89.97;97992.09;104159;1286;23723;-88
2022/12/21 01:19:11;;;;;;;83.30;74.30;;;;;;;-2.33;89.92;97981.95;106000;1315;23079;-92
2022/12/21 01:21:39;;;;;;;87.70;78.10;;;;;;;-2.26;90.37;97976.73;105480;1321;22107;-93
2022/12/21 01:24:11;;;;;;;89.70;80.10;;;;;;;-2.20;90.33;97979.41;106035;1299;22188;-90
2022/12/21 01:26:42;;;;;;;82.60;73.80;;;;;;;-2.18;90.44;97986.26;105339;1321;22213;-93
2022/12/21 01:29:14;;;;;;;83.90;74.70;;;;;;;-2.25;90.18;97987.89;105385;1320;22177;-93
2022/12/21 01:31:42;;;;;;;80.40;70.80;;;;;;;-2.26;90.26;97980.63;105413;1310;22203;-93
2022/12/21 01:34:10;;;;;;;81.80;71.20;;;;;;;-2.25;90.64;97991.67;105707;1320;22174;-91
2022/12/21 01:36:38;;;;;;;85.80;74.10;;;;;;;-2.30;90.45;97994.23;105991;1314;22148;-94
2022/12/21 01:39:06;;;;;;;94.20;78.60;;;;;;;-2.38;90.18;97997.73;105628;1321;22234;-91
2022/12/21 01:41:34;;;;;;;94.70;80.40;;;;;;;-2.44;90.67;97976.54;105464;1321;22164;-93
2022/12/21 01:44:04;;;;;;;111.30;89.60;;;;;;;-2.41;91.13;97964.98;105552;1320;22213;-90
2022/12/21 01:46:47;;;;;;;88.60;76.50;;;;;;;-2.34;91.39;97956.09;105729;1322;22251;-89
2022/12/21 01:49:20;;;;;;;77.50;69.30;;;;;;;-2.26;91.12;97957.89;105663;1321;22245;-89
2022/12/21 01:52:02;;;;;;;84.20;74.90;;;;;;;-2.13;91.56;97942.64;105646;1321;21993;-89
2022/12/21 01:54:56;;;;;;;80.40;71.70;;;;;;;-2.05;90.81;97946.55;106562;1295;24235;31
2022/12/21 01:57:33;;;;;;;77.60;69.90;;;;;;;-2.02;91.20;97956.11;107138;1283;22290;31
2022/12/21 02:00:11;;;;;;;88.20;76.30;;;;;;;-2.13;91.59;97960.88;102449;1288;22786;31
2022/12/21 02:02:57;;;;;;;73.40;65.90;;;;;;;-2.26;91.52;97953.33;106635;1287;22345;31
2022/12/21 02:05:34;;;;;;;74.10;66.30;;;;;;;-2.25;91.75;97934.14;106005;1316;21849;-87
2022/12/21 02:08:10;;;;;;;71.70;64.30;;;;;;;-2.19;91.80;97947.12;107006;1286;22234;31
2022/12/21 02:10:45;;;;;;;69.00;62.20;;;;;;;-2.15;91.94;97949.52;107241;1291;22205;31
2022/12/21 02:13:20;;;;;;;66.00;59.50;;;;;;;-2.10;91.87;97959.07;107596;1285;22277;31
2022/12/21 02:15:58;;;;;;;71.00;64.00;;;;;;;-2.09;92.29;97956.62;106863;1272;22397;-83
2022/12/21 02:18:52;;;;;;;70.80;63.50;;;;;;;-2.07;92.28;97964.61;107033;1286;23414;-84
2022/12/21 02:21:29;;;;;;;67.40;60.70;;;;;;;-2.09;92.19;97952.92;105911;1289;22210;31
2022/12/21 02:24:19;;;;;;;68.30;61.20;;;;;;;-2.07;92.46;97960.14;105592;1293;23123;-89
2022/12/21 02:26:57;;;;;;;69.00;61.80;;;;;;;-2.06;92.74;97944.61;106050;1291;22164;-93
2022/12/21 02:29:59;;;;;;;67.30;60.60;;;;;;;-2.00;92.32;97941.64;105403;1315;22100;-88
2022/12/21 02:32:46;;;;;;;67.00;60.30;;;;;;;-1.89;92.56;97948.07;105432;1323;21901;-89
2022/12/21 02:35:27;;;;;;;72.40;65.10;;;;;;;-1.83;92.37;97942.21;105943;1291;22159;-85
2022/12/21 02:38:26;;;;;;;72.70;65.40;;;;;;;-1.81;92.60;97927.37;105918;1291;22147;31
2022/12/21 02:41:39;;;;;;;71.20;64.20;;;;;;;-1.78;92.59;97924.04;106161;1316;22133;-88
2022/12/21 02:44:24;;;;;;;67.20;60.50;;;;;;;-1.82;92.49;97942.00;106390;1285;22106;-90
2022/12/21 02:47:22;;;;;;;70.30;62.90;;;;;;;-1.85;92.56;97932.60;105768;1320;22211;-90
2022/12/21 02:50:01;;;;;;;77.00;69.20;;;;;;;-1.83;92.40;97923.56;105733;1315;22331;-91
2022/12/21 02:52:44;;;;;;;;;;;;;;;-1.77;92.30;97911.28;105828;1315;22286;-93
2022/12/21 02:55:20;;;;;;;74.80;66.80;;;;;;;-1.73;92.43;97902.70;107456;1277;22683;31
2022/12/21 02:58:23;;;;;;;71.90;64.50;;;;;;;-1.71;92.16;97913.84;106994;1288;23333;31
2022/12/21 03:01:33;;;;;;;71.50;64.50;;;;;;;-1.73;92.05;97920.52;106949;1292;23761;31
2022/12/21 03:04:31;;;;;;;77.90;69.40;;;;;;;-1.75;92.11;97917.23;106922;1293;22235;31
2022/12/21 03:07:22;;;;;;;71.10;63.70;;;;;;;-1.80;91.67;97918.27;107671;1283;22502;31
2022/12/21 03:10:27;;;;;;;57.60;51.80;;;;;;;-1.88;91.56;97914.79;107017;1291;22216;31
2022/12/21 03:13:18;;;;;;;62.60;56.50;;;;;;;-1.95;91.91;97932.29;107429;1280;22144;31
2022/12/21 03:15:57;;;;;;;63.60;57.50;;;;;;;-2.15;92.41;97924.21;106342;1314;22166;-90
2022/12/21 03:18:31;;;;;;;61.40;55.50;;;;;;;-2.25;92.38;97923.00;105590;1308;22241;-92
2022/12/21 03:21:16;;;;;;;62.10;56.00;;;;;;;-2.32;92.53;97919.84;105575;1316;22202;-89
2022/12/21 03:24:00;;;;;;;61.90;55.90;;;;;;;-2.29;92.71;97922.52;105453;1324;22165;-89
2022/12/21 03:26:48;;;;;;;59.50;57.10;;;;;;;-2.26;92.63;97922.92;105991;1309;22099;-91
2022/12/21 03:29:21;;;;;;;67.80;61.30;;;;;;;-2.24;92.47;97921.24;105670;1315;22174;-90
2022/12/21 03:32:03;;;;;;;62.20;56.00;;;;;;;-2.28;92.52;97932.90;106085;1299;22176;-85
2022/12/21 03:34:45;;;;;;;59.70;53.80;;;;;;;-2.34;92.64;97925.30;106582;1291;23506;31
2022/12/21 03:37:26;;;;;;;57.50;51.70;;;;;;;-2.32;92.39;97939.98;107705;1285;22314;31
2022/12/21 03:40:13;;;;;;;56.20;50.40;;;;;;;-2.37;92.01;97938.57;98858;1291;22089;-86
2022/12/21 03:42:57;;;;;;;56.90;51.40;;;;;;;-2.38;92.37;97942.60;107490;1276;22296;31
2022/12/21 03:45:39;;;;;;;63.50;57.30;;;;;;;-2.38;92.86;97942.06;102609;1285;22246;-84
2022/12/21 03:48:20;;;;;;;59.50;53.60;;;;;;;-2.43;92.92;97941.48;107404;1285;23753;31
2022/12/21 03:51:01;;;;;;;60.50;54.60;;;;;;;-2.46;92.90;97931.73;107406;1286;22165;31
2022/12/21 03:53:44;;;;;;;64.60;58.30;;;;;;;-2.42;92.89;97930.06;106476;1283;23058;-86
2022/12/21 03:56:40;;;;;;;62.40;56.30;;;;;;;-2.36;92.80;97925.52;106950;1290;23591;31
2022/12/21 03:59:14;;;;;;;56.30;50.80;;;;;;;-2.39;92.39;97931.40;106871;1292;22194;31
2022/12/21 04:02:08;;;;;;;55.80;50.50;;;;;;;-2.57;91.77;97928.52;98898;1285;22144;-85
2022/12/21 04:05:00;;;;;;;62.00;56.10;;;;;;;-2.60;92.97;97934.55;106660;1295;22343;31
2022/12/21 04:08:01;;;;;;;59.60;53.70;;;;;;;-2.60;93.61;97926.67;106665;1286;23265;31
2022/12/21 04:10:35;;;;;;;51.90;46.80;;;;;;;-2.59;92.87;97923.42;106378;1296;22080;-90
2022/12/21 04:13:03;;;;;;;53.90;48.70;;;;;;;-2.63;93.25;97928.40;105870;1285;22108;-90
2022/12/21 04:19:57;;;;;;;64.20;57.80;;;;;;;-2.61;93.59;97938.70;105589;1324;22217;-90
2022/12/21 04:21:05;;;;;;;58.90;52.70;;;;;;;-2.60;93.65;97930.64;105619;1316;22219;-90
2022/12/21 04:29:06;;;;;;;55.60;50.20;;;;;;;-2.44;93.81;97929.80;105650;1309;22120;-92
2022/12/21 04:31:34;;;;;;;56.60;50.80;;;;;;;-2.40;93.42;97928.24;105496;1318;22211;-94
2022/12/21 04:34:02;;;;;;;62.40;56.50;;;;;;;-2.38;93.01;97928.63;105687;1321;22775;-92
2022/12/21 04:39:16;;;;;;;62.90;56.70;;;;;;;-2.44;92.36;97939.55;105483;1318;22214;-93
2022/12/21 04:41:44;;;;;;;70.50;64.00;;;;;;;-2.57;92.43;97936.88;105678;1320;23373;-90
2022/12/21 04:44:12;;;;;;;70.20;63.70;;;;;;;-2.60;92.89;97933.60;106369;1309;22115;-89
2022/12/21 04:46:41;;;;;;;60.50;54.40;;;;;;;-2.58;93.19;97932.55;105595;1321;23241;-90
2022/12/21 04:49:09;;;;;;;64.50;58.30;;;;;;;-2.62;92.59;97934.16;105580;1318;22112;-93
2022/12/21 04:51:37;;;;;;;62.80;56.40;;;;;;;-2.58;93.17;97937.46;105812;1320;23100;-89
2022/12/21 04:54:05;;;;;;;63.80;57.70;;;;;;;-2.62;92.53;97940.09;105719;1321;22234;-91
2022/12/21 04:56:33;;;;;;;62.00;56.00;;;;;;;-2.60;92.58;97940.31;105847;1320;22936;-89
2022/12/21 04:59:02;;;;;;;62.00;56.10;;;;;;;-2.73;92.08;97941.59;105684;1320;22119;-93
2022/12/21 05:01:29;;;;;;;68.30;61.70;;;;;;;-2.87;92.34;97937.02;105528;1321;22059;-91
2022/12/21 05:03:58;;;;;;;79.40;71.30;;;;;;;-2.91;92.80;97935.50;105522;1321;22873;-91
2022/12/21 05:06:27;;;;;;;74.90;67.50;;;;;;;-2.90;93.04;97939.43;106241;1312;22256;-92
2022/12/21 05:08:56;;;;;;;79.50;71.60;;;;;;;-2.87;93.05;97933.57;105635;1321;22211;-92
2022/12/21 05:11:24;;;;;;;63.20;56.80;;;;;;;-2.83;93.01;97941.02;105645;1321;22217;-90
2022/12/21 05:13:52;;;;;;;68.70;61.90;;;;;;;-2.92;92.29;97935.27;105630;1321;22119;-92
2022/12/21 05:16:23;;;;;;;69.40;62.60;;;;;;;-3.00;92.56;97940.74;105576;1321;22879;-94
2022/12/21 05:18:56;;;;;;;77.10;69.00;;;;;;;-3.09;92.72;97949.05;105633;1316;22181;-89
2022/12/21 05:21:24;;;;;;;78.60;70.90;;;;;;;-3.13;92.78;97946.77;105847;1321;22047;-89
2022/12/21 05:23:52;;;;;;;72.90;65.10;;;;;;;-3.15;92.61;97948.69;105580;1318;22100;-85
2022/12/21 05:26:20;;;;;;;73.40;65.90;;;;;;;-3.22;92.35;97949.23;106035;1301;21944;-85
2022/12/21 05:28:49;;;;;;;70.60;63.50;;;;;;;-3.22;92.76;97946.44;105887;1319;22299;-88
2022/12/21 05:31:17;;;;;;;77.80;70.00;;;;;;;-3.14;92.94;97944.09;105620;1321;21879;-89
2022/12/21 05:33:45;;;;;;;66.70;60.20;;;;;;;-3.07;92.93;97941.34;106225;1295;22294;-87
2022/12/21 05:36:15;;;;;;;67.00;60.50;;;;;;;-2.93;93.60;97944.96;105786;1315;22292;-89
2022/12/21 05:38:44;;;;;;;72.00;65.20;;;;;;;-2.80;93.99;97938.80;105944;1294;21930;-88
2022/12/21 05:41:14;;;;;;;74.20;67.00;;;;;;;-2.69;93.74;97936.35;105619;1315;22061;-90
2022/12/21 05:43:42;;;;;;;74.30;66.80;;;;;;;-2.62;93.73;97939.91;105492;1318;22109;-91
2022/12/21 05:46:12;;;;;;;71.40;64.60;;;;;;;-2.54;93.72;97928.95;105658;1315;22213;-90
2022/12/21 05:48:45;;;;;;;64.80;58.40;;;;;;;-2.45;93.76;97939.16;105502;1321;22234;-89
2022/12/21 05:51:14;;;;;;;62.20;55.90;;;;;;;-2.43;92.99;97939.75;105673;1320;22121;-90
2022/12/21 05:53:43;;;;;;;78.50;70.20;;;;;;;-2.38;93.34;97943.94;105594;1321;21851;-89
2022/12/21 05:56:19;;;;;;;76.50;68.90;;;;;;;-2.32;93.38;97947.87;105904;1295;22981;31
2022/12/21 05:58:55;;;;;;;238.40;144.90;;;;;;;-2.26;93.63;97942.98;105881;1287;22654;31
2022/12/21 06:01:35;;;;;;;223.90;134.40;;;;;;;-2.20;93.84;97947.34;106532;1287;23769;31
2022/12/21 06:04:03;;;;;;;166.00;106.70;;;;;;;-2.16;93.84;97942.55;105449;1322;22075;-89
2022/12/21 06:06:31;;;;;;;135.10;86.00;;;;;;;-2.11;93.94;97935.76;105769;1314;22150;-90
2022/12/21 06:08:59;;;;;;;85.10;75.90;;;;;;;-2.07;93.65;97931.13;105551;1324;22184;-91
2022/12/21 06:11:27;;;;;;;72.80;65.50;;;;;;;-2.02;93.24;97930.01;105584;1323;21903;-94
2022/12/21 06:13:55;;;;;;;83.50;75.10;;;;;;;-2.01;93.17;97940.27;105392;1318;22144;-95
2022/12/21 06:16:55;;;;;;;150.80;93.70;;;;;;;-2.00;93.02;97935.63;105131;1324;22104;-93
2022/12/21 06:19:24;;;;;;;181.40;124.50;;;;;;;-2.01;93.31;97928.73;105124;1324;22146;-93
2022/12/21 06:26:12;;;;;;;194.50;143.10;;;;;;;-2.11;92.99;97913.06;105510;1324;22203;-95
2022/12/21 06:28:41;;;;;;;103.10;85.30;;;;;;;-2.12;93.31;97919.08;105436;1317;22784;-92
2022/12/21 06:31:12;;;;;;;86.10;76.90;;;;;;;-2.26;92.53;97924.51;105190;1314;22145;-93
2022/12/21 06:33:40;;;;;;;85.10;75.80;;;;;;;-2.24;93.16;97926.20;105222;1324;22274;-90
2022/12/21 06:36:10;;;;;;;104.60;86.60;;;;;;;-2.14;93.77;97913.86;105065;1324;22783;-87
2022/12/21 06:38:45;;;;;;;74.50;66.90;;;;;;;-2.04;93.37;97932.16;106486;1282;23351;31
2022/12/21 06:41:20;;;;;;;78.30;70.70;;;;;;;-2.04;93.18;97928.52;107719;1285;22238;31
2022/12/21 06:43:55;;;;;;;113.30;95.60;;;;;;;-2.01;93.31;97927.20;107623;1278;23764;31
2022/12/21 06:46:30;;;;;;;113.40;95.30;;;;;;;-1.93;93.75;97916.02;107626;1278;22295;31
2022/12/21 06:49:05;;;;;;;87.90;78.70;;;;;;;-1.89;93.72;97919.27;107348;1285;22371;31
2022/12/21 06:51:40;;;;;;;84.50;75.70;;;;;;;-1.86;93.61;97909.08;107454;1284;22504;31
2022/12/21 06:54:15;;;;;;;79.80;71.50;;;;;;;-1.80;93.65;97909.23;107223;1286;22699;31
2022/12/21 06:56:51;;;;;;;78.80;71.10;;;;;;;-1.75;93.56;97903.89;107707;1285;22310;31
2022/12/21 06:59:38;;;;;;;77.80;69.40;;;;;;;-1.65;93.83;97906.31;107677;1285;22525;31
2022/12/21 07:02:15;;;;;;;82.10;73.30;;;;;;;-1.53;93.59;97908.17;107018;1286;22402;31
2022/12/21 07:04:52;;;;;;;83.80;75.70;;;;;;;-1.47;93.73;97905.86;107368;1282;22310;31
2022/12/21 07:07:41;;;;;;;91.70;82.80;;;;;;;-1.42;93.69;97904.26;107885;1281;22154;31
2022/12/21 07:10:09;;;;;;;91.30;81.70;;;;;;;-1.40;93.65;97911.35;106643;1315;22102;-91
2022/12/21 07:12:37;;;;;;;81.20;73.00;;;;;;;-1.33;94.10;97911.16;105597;1317;22094;-85
2022/12/21 07:15:05;;;;;;;80.00;71.90;;;;;;;-1.23;94.10;97904.69;105636;1316;22115;-89
2022/12/21 07:17:33;;;;;;;77.80;70.20;;;;;;;-1.12;94.00;97899.73;105532;1316;22212;-90
2022/12/21 07:20:02;;;;;;;80.00;72.10;;;;;;;-1.01;93.81;97890.73;105489;1321;22225;-89
2022/12/21 07:22:49;;;;;;;80.70;72.80;;;;;;;-0.90;93.80;97882.43;107109;1291;22636;31
2022/12/21 07:25:24;;;;;;;81.20;72.80;;;;;;;-0.80;93.96;97873.07;107404;1291;22297;31
2022/12/21 07:27:59;;;;;;;83.80;75.70;;;;;;;-0.73;94.00;97873.41;107604;1287;22318;31
2022/12/21 07:31:19;;;;;;;82.50;74.40;;;;;;;-0.69;94.29;97877.17;103668;1278;22983;31
2022/12/21 07:37:21;;;;;;;71.50;64.60;;;;;;;-0.52;93.90;97866.69;103758;1292;22253;31
2022/12/21 07:40:13;;;;;;;66.00;59.60;;;;;;;-0.44;93.99;97877.98;107587;1279;22489;-86
2022/12/21 07:42:48;;;;;;;66.10;59.30;;;;;;;-0.38;93.82;97883.94;107721;1285;22300;31
2022/12/21 07:45:57;;;;;;;71.60;64.70;;;;;;;-0.36;93.69;97888.98;107418;1288;22483;31
2022/12/21 07:48:25;;;;;;;74.40;67.50;;;;;;;-0.34;94.08;97888.12;106388;1285;22236;-90
2022/12/21 07:50:58;;;;;;;75.10;67.40;;;;;;;-0.28;94.27;97890.42;105571;1321;22198;-88
2022/12/21 07:53:26;;;;;;;72.80;65.60;;;;;;;-0.24;94.15;97883.43;106223;1294;22347;-88
2022/12/21 07:56:07;;;;;;;75.30;67.40;;;;;;;-0.17;94.22;97871.88;105907;1314;22010;-87
2022/12/21 07:58:59;;;;;;;77.00;69.40;;;;;;;-0.06;94.21;97873.30;106196;1287;22147;31
2022/12/21 08:01:27;;;;;;;76.80;69.60;;;;;;;0.05;94.10;97875.23;107104;1284;22210;-88
2022/12/21 08:03:57;;;;;;;75.90;68.20;;;;;;;0.10;93.96;97877.79;106347;1305;22193;-91
2022/12/21 08:06:25;;;;;;;70.30;62.50;;;;;;;0.08;93.69;97875.19;105585;1299;22229;-90
2022/12/21 08:08:54;;;;;;;90.90;80.90;;;;;;;0.06;93.79;97877.96;105152;1317;22105;-92
2022/12/21 08:11:22;;;;;;;72.20;65.10;;;;;;;0.05;93.83;97888.65;105198;1316;22096;-92
2022/12/21 08:13:50;;;;;;;85.50;75.20;;;;;;;0.05;93.69;97882.17;105670;1306;22195;-89
2022/12/21 08:16:18;;;;;;;97.60;82.60;;;;;;;0.07;93.81;97877.65;105221;1324;23080;-92
2022/12/21 08:18:47;;;;;;;99.10;87.70;;;;;;;0.15;94.08;97877.05;105296;1324;22207;-93
2022/12/21 08:21:16;;;;;;;81.20;73.60;;;;;;;0.19;93.93;97874.98;105548;1307;22174;-89
2022/12/21 08:23:44;;;;;;;120.80;67.60;;;;;;;0.18;93.81;97867.33;105557;1317;22194;-91
2022/12/21 08:26:14;;;;;;;72.40;65.40;;;;;;;0.16;93.81;97873.56;105538;1317;22093;-91
2022/12/21 08:28:43;;;;;;;70.20;63.20;;;;;;;0.11;93.64;97879.27;104895;1321;22142;-90
2022/12/21 08:31:17;;;;;;;69.00;62.10;;;;;;;0.09;93.71;97875.16;105239;1324;22204;-90
2022/12/21 08:33:45;;;;;;;71.90;64.70;;;;;;;0.14;93.85;97871.77;105685;1316;22212;-90
2022/12/21 08:36:16;;;;;;;75.30;67.80;;;;;;;0.20;93.72;97867.20;105404;1323;22971;-92
2022/12/21 08:38:45;;;;;;;71.70;64.30;;;;;;;0.27;94.00;97868.02;105479;1316;22165;-92
2022/12/21 08:41:33;;;;;;;200.80;140.60;;;;;;;0.36;94.16;97860.16;105677;1302;22180;-93
2022/12/21 08:44:02;;;;;;;99.60;86.10;;;;;;;0.48;94.50;97863.21;105476;1323;22285;-92
2022/12/21 08:46:30;;;;;;;97.20;81.30;;;;;;;0.60;94.29;97854.81;105085;1324;22267;-92
2022/12/21 08:48:58;;;;;;;78.80;71.20;;;;;;;0.73;94.40;97847.98;105691;1311;22099;-93
2022/12/21 08:51:27;;;;;;;74.10;67.00;;;;;;;0.89;94.17;97844.59;105458;1323;22265;-92
2022/12/21 08:53:55;;;;;;;82.40;73.80;;;;;;;0.99;93.78;97855.26;105428;1306;22102;-93
2022/12/21 08:56:24;;;;;;;76.60;69.00;;;;;;;0.99;93.64;97856.13;105795;1317;22111;-89
2022/12/21 08:58:52;;;;;;;81.50;73.70;;;;;;;0.98;93.60;97861.89;105502;1286;23621;-91
2022/12/21 09:01:22;;;;;;;82.50;74.20;;;;;;;0.96;93.54;97864.61;105724;1298;22067;-90
2022/12/21 09:03:51;;;;;;;88.50;80.00;;;;;;;0.91;93.66;97870.03;105752;1322;22903;-90
2022/12/21 09:06:19;;;;;;;76.80;69.20;;;;;;;0.87;93.37;97869.33;105820;1292;22830;-91
2022/12/21 09:08:50;;;;;;;75.90;68.00;;;;;;;0.80;92.87;97865.42;105666;1321;22350;-91
2022/12/21 09:11:20;;;;;;;75.50;67.90;;;;;;;0.75;92.85;97870.42;105633;1315;22097;-90
2022/12/21 09:13:54;;;;;;;78.10;70.70;;;;;;;0.71;92.81;97873.80;105402;1316;22182;-90
2022/12/21 09:16:23;;;;;;;80.10;72.00;;;;;;;0.68;93.05;97877.98;105763;1321;22276;-89
2022/12/21 09:18:55;;;;;;;78.10;70.70;;;;;;;0.66;93.10;97876.52;105345;1323;22129;-88
2022/12/21 09:21:23;;;;;;;85.00;75.90;;;;;;;0.68;93.43;97876.89;105783;1314;22173;-91
2022/12/21 09:23:52;;;;;;;75.80;68.20;;;;;;;0.68;93.12;97870.55;105592;1321;22286;-90
2022/12/21 09:26:20;;;;;;;73.10;65.90;;;;;;;0.69;92.79;97864.74;105225;1315;22244;-91
2022/12/21 09:28:48;;;;;;;67.00;60.30;;;;;;;0.74;92.98;97859.70;105449;1321;22313;-91
2022/12/21 09:31:19;;;;;;;85.50;76.90;;;;;;;0.79;92.52;97861.80;105595;1324;22219;-92
2022/12/21 09:33:54;;;;;;;70.30;63.40;;;;;;;0.83;93.04;97851.89;105177;1324;22095;-92
2022/12/21 09:36:24;;;;;;;70.50;63.80;;;;;;;0.88;93.11;97854.40;105137;1324;22209;-92
2022/12/21 09:38:55;;;;;;;70.10;63.40;;;;;;;0.97;93.03;97853.55;105139;1319;22122;-92
2022/12/21 09:41:29;;;;;;;66.20;59.30;;;;;;;1.00;92.87;97844.67;105520;1316;22202;-92
2022/12/21 09:44:31;;;;;;;69.10;61.20;;;;;;;1.00;92.18;97850.88;105935;1314;22138;-91
2022/12/21 09:47:03;;;;;;;63.90;57.70;;;;;;;1.00;92.49;97852.38;105531;1321;22196;-91
2022/12/21 09:49:42;;;;;;;59.30;53.70;;;;;;;1.05;92.47;97854.07;105824;1316;22192;-90
2022/12/21 09:52:22;;;;;;;64.20;57.80;;;;;;;1.08;92.50;97853.70;105715;1317;22165;-92
2022/12/21 09:54:59;;;;;;;63.70;57.20;;;;;;;1.05;92.04;97844.98;105458;1321;22311;-90
2022/12/21 09:57:34;;;;;;;64.60;58.10;;;;;;;1.03;92.09;97850.30;105782;1291;24166;-88
2022/12/21 10:00:30;;;;;;;63.60;57.40;;;;;;;1.03;92.03;97854.02;106188;1286;22296;31
2022/12/21 10:03:12;;;;;;;63.40;57.10;;;;;;;1.05;92.14;97844.91;105614;1292;22302;-91
2022/12/21 10:05:47;;;;;;;67.00;60.60;;;;;;;1.08;92.22;97849.92;106185;1279;22906;-91
2022/12/21 10:08:15;;;;;;;71.00;64.20;;;;;;;1.09;92.02;97842.84;105686;1315;22240;-87
2022/12/21 10:10:55;;;;;;;73.40;66.20;;;;;;;1.10;92.26;97838.80;105635;1318;22615;-92
2022/12/21 10:13:52;;;;;;;69.30;62.10;;;;;;;1.14;91.84;97835.27;105861;1308;22214;-90
2022/12/21 10:17:09;;;;;;;63.90;57.50;;;;;;;1.13;91.61;97834.04;105556;1324;22058;-91
2022/12/21 10:20:00;;;;;;;67.80;61.00;;;;;;;1.24;91.89;97832.35;105837;1294;22163;-89
2022/12/21 10:22:33;;;;;;;75.10;67.70;;;;;;;1.31;92.13;97828.07;105634;1317;22151;-91
2022/12/21 10:25:04;;;;;;;75.80;68.20;;;;;;;1.37;92.07;97833.90;105943;1290;22168;-93
2022/12/21 10:27:58;;;;;;;162.30;71.80;;;;;;;1.38;91.56;97839.13;105535;1321;21923;-90
2022/12/21 10:30:30;;;;;;;73.70;65.80;;;;;;;1.38;91.56;97842.04;105687;1295;22167;-91
2022/12/21 10:32:59;;;;;;;79.70;71.30;;;;;;;1.39;91.66;97844.13;105615;1321;22180;-92
2022/12/21 10:35:36;;;;;;;74.10;66.90;;;;;;;1.41;91.65;97835.77;105941;1308;22956;-94
2022/12/21 10:38:14;;;;;;;73.90;66.10;;;;;;;1.42;91.65;97833.67;105624;1322;22119;-92
2022/12/21 10:40:50;;;;;;;75.10;67.30;;;;;;;1.41;91.92;97827.55;105274;1324;22228;-89
2022/12/21 10:43:20;;;;;;;74.70;66.90;;;;;;;1.41;91.57;97824.36;105223;1324;22239;-93
2022/12/21 10:45:49;;;;;;;71.60;64.50;;;;;;;1.44;91.71;97817.44;105127;1324;22195;-86
2022/12/21 10:48:19;;;;;;;71.00;64.10;;;;;;;1.49;91.55;97826.71;105188;1323;22200;-90
2022/12/21 10:50:50;;;;;;;70.20;63.30;;;;;;;1.47;91.20;97824.83;105228;1324;22762;-88
2022/12/21 10:53:27;;;;;;;66.30;59.60;;;;;;;1.41;91.27;97821.75;105232;1324;22220;-87
2022/12/21 10:55:58;;;;;;;75.30;68.00;;;;;;;1.36;91.38;97821.95;105355;1323;22220;-87
2022/12/21 10:58:33;;;;;;;68.30;61.50;;;;;;;1.32;91.51;97820.16;105044;1309;22405;-88
2022/12/21 11:01:05;;;;;;;68.70;61.80;;;;;;;1.33;91.40;97821.62;105849;1314;22199;-88
2022/12/21 11:03:36;;;;;;;70.00;63.10;;;;;;;1.36;91.34;97817.05;105345;1323;23010;-89
2022/12/21 11:06:17;;;;;;;66.90;60.40;;;;;;;1.40;91.66;97810.52;105335;1322;23051;-87
2022/12/21 11:08:50;;;;;;;72.20;65.00;;;;;;;1.48;92.03;97807.58;105221;1324;22974;-88
2022/12/21 11:11:31;;;;;;;74.20;64.90;;;;;;;1.56;91.91;97804.20;105243;1324;22255;-89
2022/12/21 11:14:03;;;;;;;74.90;67.50;;;;;;;1.63;92.01;97791.27;105506;1317;22176;-88
2022/12/21 11:16:36;;;;;;;64.80;58.20;;;;;;;1.63;91.53;97787.47;104987;1324;22233;-85
2022/12/21 11:19:10;;;;;;;61.90;55.70;;;;;;;1.63;91.54;97783.86;105306;1323;22208;-88
2022/12/21 11:21:50;;;;;;;55.50;50.10;;;;;;;1.69;91.64;97781.87;105156;1320;22195;-90
2022/12/21 11:24:37;;;;;;;59.80;54.10;;;;;;;1.70;91.46;97780.45;105626;1317;22180;-88
2022/12/21 11:27:08;;;;;;;68.60;62.10;;;;;;;1.69;91.23;97767.94;105284;1324;22984;-90
2022/12/21 11:29:47;;;;;;;83.30;75.20;;;;;;;1.69;91.74;97763.06;105287;1324;22189;-90
2022/12/21 11:32:17;;;;;;;83.60;75.20;;;;;;;1.68;91.22;97758.86;105311;1324;22201;-89
2022/12/21 11:34:51;;;;;;;72.80;65.40;;;;;;;1.69;91.14;97760.14;105489;1311;22172;-89
2022/12/21 11:37:47;;;;;;;65.50;59.10;;;;;;;1.70;91.07;97761.86;105219;1323;22192;-90
2022/12/21 11:40:22;;;;;;;64.90;58.50;;;;;;;1.71;90.83;97769.15;105241;1323;22920;-88
2022/12/21 11:42:59;;;;;;;65.60;58.80;;;;;;;1.70;91.06;97775.56;105392;1324;22207;-91
2022/12/21 11:46:06;;;;;;;62.10;56.20;;;;;;;1.70;91.24;97776.98;105273;1324;22232;-88
2022/12/21 11:49:21;;;;;;;53.00;47.90;;;;;;;1.74;91.27;97763.92;105221;1324;22216;-86
2022/12/21 11:52:12;;;;;;;59.80;53.60;;;;;;;1.72;90.77;97766.91;105406;1324;22196;-93
2022/12/21 11:54:53;;;;;;;57.10;51.50;;;;;;;1.67;91.28;97754.69;105357;1324;22267;-85
2022/12/21 11:57:30;;;;;;;59.10;53.10;;;;;;;1.64;91.11;97762.08;105074;1319;22903;-88
2022/12/21 12:00:07;;;;;;;58.60;52.70;;;;;;;1.57;90.76;97759.55;105340;1315;22246;-86
2022/12/21 12:03:15;;;;;;;65.90;59.30;;;;;;;1.51;91.04;97751.54;105270;1324;22589;-86
2022/12/21 12:06:14;;;;;;;70.60;63.80;;;;;;;1.44;91.31;97757.34;105730;1315;22789;-86
2022/12/21 12:09:12;;;;;;;67.20;60.50;;;;;;;1.44;91.06;97757.82;105153;1324;22284;-85
2022/12/21 12:11:43;;;;;;;63.30;57.20;;;;;;;1.43;91.27;97759.48;105401;1323;23078;-85
2022/12/21 12:14:37;;;;;;;65.50;59.20;;;;;;;1.43;91.16;97763.54;105316;1324;22272;-85